createdAt,value
2019-05-18T00:01:46.018Z,12.60
2019-05-18T00:04:16.211Z,12.60
2019-05-18T00:06:47.630Z,12.60
2019-05-18T00:09:17.858Z,12.60
2019-05-18T00:11:48.078Z,12.60
2019-05-18T00:14:18.411Z,12.60
2019-05-18T00:16:48.721Z,12.50
2019-05-18T00:19:18.938Z,12.50
2019-05-18T00:21:49.256Z,12.50
2019-05-18T00:24:19.777Z,12.40
2019-05-18T00:26:50.022Z,12.40
2019-05-18T00:29:20.363Z,12.30
2019-05-18T00:31:50.557Z,12.30
2019-05-18T00:34:20.865Z,12.30
2019-05-18T00:36:51.325Z,12.30
2019-05-18T00:39:21.591Z,12.30
2019-05-18T00:41:51.803Z,12.30
2019-05-18T00:44:22.149Z,12.20
2019-05-18T00:46:52.378Z,12.20
2019-05-18T00:49:22.574Z,12.20
2019-05-18T00:51:52.825Z,12.20
2019-05-18T00:54:23.057Z,12.20
2019-05-18T00:56:53.391Z,12.20
2019-05-18T00:59:23.828Z,12.20
2019-05-18T01:01:54.079Z,12.20
2019-05-18T01:04:24.447Z,12.20
2019-05-18T01:06:55.594Z,12.20
2019-05-18T01:09:25.860Z,12.20
2019-05-18T01:11:56.106Z,12.10
2019-05-18T01:14:26.380Z,12.10
2019-05-18T01:16:56.688Z,12.10
2019-05-18T01:19:26.920Z,12.10
2019-05-18T01:21:57.274Z,12.00
2019-05-18T01:24:27.543Z,12.00
2019-05-18T01:26:57.717Z,12.00
2019-05-18T01:29:28.027Z,12.00
2019-05-18T01:31:58.316Z,12.10
2019-05-18T01:34:28.490Z,12.10
2019-05-18T01:36:58.779Z,12.00
2019-05-18T01:39:29.040Z,12.00
2019-05-18T01:41:59.318Z,12.10
2019-05-18T01:44:29.685Z,12.00
2019-05-18T01:46:59.911Z,12.00
2019-05-18T01:49:30.137Z,12.00
2019-05-18T01:52:00.439Z,12.00
2019-05-18T01:54:30.708Z,12.00
2019-05-18T01:57:01.099Z,12.00
2019-05-18T01:59:31.495Z,12.00
2019-05-18T02:02:01.743Z,12.00
2019-05-18T02:04:32.105Z,12.00
2019-05-18T02:07:02.408Z,12.00
2019-05-18T02:09:33.492Z,12.00
2019-05-18T02:12:03.755Z,12.00
2019-05-18T02:14:34.004Z,12.00
2019-05-18T02:17:08.686Z,12.00
2019-05-18T02:19:39.002Z,11.90
2019-05-18T02:22:09.248Z,12.00
2019-05-18T02:24:39.446Z,11.90
2019-05-18T02:27:09.690Z,11.90
2019-05-18T02:29:39.928Z,11.90
2019-05-18T02:32:10.248Z,11.90
2019-05-18T02:34:40.477Z,11.90
2019-05-18T02:37:10.639Z,11.90
2019-05-18T02:39:43.824Z,11.80
2019-05-18T02:42:18.984Z,11.80
2019-05-18T02:44:49.468Z,11.80
2019-05-18T02:47:19.724Z,11.80
2019-05-18T02:49:49.885Z,11.80
2019-05-18T02:52:20.180Z,11.70
2019-05-18T02:54:50.560Z,11.70
2019-05-18T02:57:20.817Z,11.70
2019-05-18T02:59:51.021Z,11.70
2019-05-18T03:02:21.236Z,11.70
2019-05-18T03:04:51.710Z,11.70
2019-05-18T03:07:23.508Z,11.70
2019-05-18T03:09:56.138Z,11.70
2019-05-18T03:12:26.584Z,11.70
2019-05-18T03:14:58.110Z,11.70
2019-05-18T03:17:28.345Z,11.70
2019-05-18T03:19:58.536Z,11.70
2019-05-18T03:22:31.421Z,11.70
2019-05-18T03:25:01.627Z,11.70
2019-05-18T03:27:32.323Z,11.70
2019-05-18T03:30:02.546Z,11.70
2019-05-18T03:32:32.902Z,11.70
2019-05-18T03:35:05.229Z,11.70
2019-05-18T03:37:35.499Z,11.70
2019-05-18T03:40:07.538Z,11.70
2019-05-18T03:42:38.468Z,11.70
2019-05-18T03:45:09.543Z,11.70
2019-05-18T03:47:39.752Z,11.70
2019-05-18T03:50:11.358Z,11.70
2019-05-18T03:52:41.625Z,11.70
2019-05-18T03:55:12.097Z,11.70
2019-05-18T03:57:42.400Z,11.70
2019-05-18T04:00:12.849Z,11.80
2019-05-18T04:02:42.915Z,11.70
2019-05-18T04:05:13.270Z,11.80
2019-05-18T04:07:43.500Z,11.80
2019-05-18T04:10:13.856Z,11.80
2019-05-18T04:12:45.022Z,11.80
2019-05-18T04:15:19.349Z,11.80
2019-05-18T04:17:49.584Z,11.80
2019-05-18T04:20:20.084Z,11.80
2019-05-18T04:22:50.369Z,11.90
2019-05-18T04:25:24.663Z,11.90
2019-05-18T04:27:54.948Z,11.90
2019-05-18T04:30:25.096Z,11.90
2019-05-18T04:32:55.584Z,11.90
2019-05-18T04:35:26.270Z,11.90
2019-05-18T04:37:57.052Z,11.90
2019-05-18T04:40:27.274Z,11.90
2019-05-18T04:42:57.468Z,11.90
2019-05-18T04:45:30.613Z,11.90
2019-05-18T04:48:01.855Z,12.00
2019-05-18T04:50:32.086Z,12.00
2019-05-18T04:53:02.365Z,12.00
2019-05-18T04:55:32.612Z,12.00
2019-05-18T04:58:02.691Z,12.00
2019-05-18T05:00:32.924Z,12.00
2019-05-18T05:03:05.073Z,12.00
2019-05-18T05:05:35.302Z,12.00
2019-05-18T05:08:05.581Z,12.00
2019-05-18T05:10:35.843Z,12.10
2019-05-18T05:13:06.989Z,12.10
2019-05-18T05:15:37.279Z,12.10
2019-05-18T05:18:07.696Z,12.20
2019-05-18T05:20:37.927Z,12.20
2019-05-18T05:23:08.337Z,12.20
2019-05-18T05:25:38.603Z,12.20
2019-05-18T05:28:08.807Z,12.20
2019-05-18T05:30:39.077Z,12.20
2019-05-18T05:33:09.268Z,12.20
2019-05-18T05:35:39.539Z,12.20
2019-05-18T05:38:09.830Z,12.30
2019-05-18T05:40:40.018Z,12.30
2019-05-18T05:43:10.260Z,12.30
2019-05-18T05:45:40.523Z,12.30
2019-05-18T05:48:10.804Z,12.30
2019-05-18T05:50:42.758Z,12.40
2019-05-18T05:53:15.418Z,12.40
2019-05-18T05:55:45.631Z,12.40
2019-05-18T05:58:16.135Z,12.40
2019-05-18T06:00:46.470Z,12.50
2019-05-18T06:03:16.739Z,12.50
2019-05-18T06:05:46.960Z,12.60
2019-05-18T06:08:17.207Z,12.60
2019-05-18T06:10:47.400Z,12.60
2019-05-18T06:13:17.806Z,12.60
2019-05-18T06:15:49.092Z,12.60
2019-05-18T06:18:19.392Z,12.60
2019-05-18T06:20:51.810Z,12.60
2019-05-18T06:23:21.613Z,12.60
2019-05-18T06:25:51.883Z,12.60
2019-05-18T06:28:22.125Z,12.70
2019-05-18T06:30:52.450Z,12.70
2019-05-18T06:33:22.634Z,12.70
2019-05-18T06:35:52.958Z,12.70
2019-05-18T06:38:23.314Z,12.70
2019-05-18T06:40:53.493Z,12.70
2019-05-18T06:43:23.722Z,12.70
2019-05-18T06:45:54.091Z,12.80
2019-05-18T06:48:24.305Z,12.80
2019-05-18T06:51:06.276Z,12.90
2019-05-18T06:53:26.417Z,13.00
2019-05-18T06:55:57.578Z,13.10
2019-05-18T06:58:28.524Z,13.20
2019-05-18T07:00:58.840Z,13.30
2019-05-18T07:03:29.014Z,13.30
2019-05-18T07:05:59.597Z,13.40
2019-05-18T07:08:29.774Z,13.40
2019-05-18T07:10:59.999Z,13.50
2019-05-18T07:13:31.335Z,13.50
2019-05-18T07:16:01.560Z,13.50
2019-05-18T07:18:31.734Z,13.60
2019-05-18T07:21:02.013Z,13.60
2019-05-18T07:23:32.227Z,13.70
2019-05-18T07:26:02.457Z,13.60
2019-05-18T07:28:32.691Z,13.60
2019-05-18T07:31:02.840Z,13.50
2019-05-18T07:33:33.104Z,13.40
2019-05-18T07:36:03.376Z,13.30
2019-05-18T07:38:33.627Z,13.30
2019-05-18T07:41:03.945Z,13.30
2019-05-18T07:43:34.264Z,13.30
2019-05-18T07:46:04.355Z,13.30
2019-05-18T07:48:34.578Z,13.30
2019-05-18T07:51:04.867Z,13.40
2019-05-18T07:53:35.114Z,13.40
2019-05-18T07:56:05.456Z,13.40
2019-05-18T07:58:35.806Z,13.40
2019-05-18T08:01:06.015Z,13.40
2019-05-18T08:03:36.287Z,13.30
2019-05-18T08:06:06.557Z,13.30
2019-05-18T08:08:36.816Z,13.30
2019-05-18T08:11:07.006Z,13.40
2019-05-18T08:13:37.312Z,13.30
2019-05-18T08:16:07.643Z,13.30
2019-05-18T08:18:37.857Z,13.30
2019-05-18T08:21:08.191Z,13.30
2019-05-18T08:23:38.442Z,13.30
2019-05-18T08:26:08.625Z,13.30
2019-05-18T08:28:38.911Z,13.30
2019-05-18T08:31:09.123Z,13.30
2019-05-18T08:33:39.355Z,13.30
2019-05-18T08:36:09.669Z,13.40
2019-05-18T08:38:39.840Z,13.40
2019-05-18T08:41:10.079Z,13.40
2019-05-18T08:43:40.390Z,13.40
2019-05-18T08:46:10.595Z,13.40
2019-05-18T08:48:40.824Z,13.50
2019-05-18T08:51:11.250Z,13.50
2019-05-18T08:53:41.527Z,13.60
2019-05-18T08:56:11.789Z,13.70
2019-05-18T08:58:42.061Z,13.80
2019-05-18T09:01:12.288Z,13.80
2019-05-18T09:03:42.507Z,13.90
2019-05-18T09:06:12.732Z,13.90
2019-05-18T09:08:42.935Z,14.00
2019-05-18T09:11:13.235Z,14.00
2019-05-18T09:13:43.544Z,13.90
2019-05-18T09:16:14.699Z,14.00
2019-05-18T09:18:44.986Z,13.90
2019-05-18T09:21:15.295Z,13.90
2019-05-18T09:23:45.378Z,13.90
2019-05-18T09:26:15.632Z,14.00
2019-05-18T09:28:45.891Z,14.00
2019-05-18T09:31:16.139Z,13.90
2019-05-18T09:33:46.270Z,13.90
2019-05-18T09:36:16.580Z,13.90
2019-05-18T09:38:46.731Z,14.00
2019-05-18T09:41:16.915Z,14.00
2019-05-18T09:43:47.237Z,14.10
2019-05-18T09:46:17.494Z,14.20
2019-05-18T09:48:47.869Z,14.30
2019-05-18T09:51:18.142Z,14.30
2019-05-18T09:53:51.472Z,14.40
2019-05-18T09:56:42.801Z,14.50
2019-05-18T09:59:14.296Z,14.50
2019-05-18T10:02:31.781Z,14.60
2019-05-18T10:05:02.017Z,14.70
2019-05-18T10:07:32.330Z,14.80
2019-05-18T10:10:04.291Z,14.90
2019-05-18T10:12:39.014Z,15.00
2019-05-18T10:15:21.919Z,15.00
2019-05-18T10:18:17.450Z,15.10
2019-05-18T10:21:44.092Z,15.10
2019-05-18T10:24:14.360Z,15.20
2019-05-18T10:26:44.640Z,15.30
2019-05-18T10:29:14.871Z,15.40
2019-05-18T10:31:45.095Z,15.40
2019-05-18T10:34:15.396Z,15.40
2019-05-18T10:36:45.768Z,15.30
2019-05-18T10:39:15.956Z,15.30
2019-05-18T10:41:46.264Z,15.30
2019-05-18T10:44:16.547Z,15.30
2019-05-18T10:46:46.724Z,15.20
2019-05-18T10:49:16.850Z,15.20
2019-05-18T10:51:47.112Z,15.20
2019-05-18T10:54:17.279Z,15.30
2019-05-18T10:56:47.559Z,15.50
2019-05-18T10:59:17.742Z,15.70
2019-05-18T11:01:47.899Z,15.80
2019-05-18T11:04:18.227Z,15.80
2019-05-18T11:06:48.281Z,15.90
2019-05-18T11:09:18.575Z,15.80
2019-05-18T11:11:49.041Z,15.70
2019-05-18T11:14:19.299Z,15.70
2019-05-18T11:16:49.510Z,15.60
2019-05-18T11:19:20.569Z,15.50
2019-05-18T11:21:50.741Z,15.50
2019-05-18T11:24:20.959Z,15.50
2019-05-18T11:26:51.272Z,15.40
2019-05-18T11:29:23.441Z,15.40
2019-05-18T11:31:53.266Z,15.40
2019-05-18T11:34:23.580Z,15.40
2019-05-18T11:36:53.848Z,15.50
2019-05-18T11:39:24.023Z,15.50
2019-05-18T11:41:54.351Z,15.60
2019-05-18T11:44:24.672Z,15.60
2019-05-18T11:46:54.933Z,15.70
2019-05-18T11:49:25.169Z,15.60
2019-05-18T11:51:55.567Z,15.30
2019-05-18T11:54:25.816Z,15.10
2019-05-18T11:56:56.132Z,14.90
2019-05-18T11:59:26.424Z,14.90
2019-05-18T12:01:56.526Z,15.00
2019-05-18T12:04:26.864Z,14.90
2019-05-18T12:06:57.082Z,14.90
2019-05-18T12:09:27.399Z,14.90
2019-05-18T12:11:57.526Z,14.80
2019-05-18T12:14:27.796Z,14.70
2019-05-18T12:16:57.959Z,14.60
2019-05-18T12:19:28.245Z,14.50
2019-05-18T12:22:00.317Z,14.40
2019-05-18T12:24:30.627Z,14.30
2019-05-18T12:27:00.835Z,14.20
2019-05-18T12:29:31.023Z,14.20
2019-05-18T12:32:01.283Z,14.10
2019-05-18T12:34:31.563Z,14.10
2019-05-18T12:37:01.791Z,14.10
2019-05-18T12:39:31.994Z,14.10
2019-05-18T12:42:02.725Z,14.10
2019-05-18T12:44:33.159Z,14.10
2019-05-18T12:47:04.100Z,14.20
2019-05-18T12:49:36.013Z,14.30
2019-05-18T12:52:07.254Z,14.30
2019-05-18T12:54:46.232Z,14.30
2019-05-18T12:57:09.411Z,14.30
2019-05-18T12:59:39.658Z,14.40
2019-05-18T13:02:10.003Z,14.30
2019-05-18T13:04:41.977Z,14.30
2019-05-18T13:07:12.097Z,14.30
2019-05-18T13:09:42.440Z,14.40
2019-05-18T13:12:12.868Z,14.50
2019-05-18T13:14:43.109Z,14.70
2019-05-18T13:17:13.402Z,14.90
2019-05-18T13:19:43.636Z,15.10
2019-05-18T13:22:13.885Z,15.20
2019-05-18T13:24:45.836Z,15.40
2019-05-18T13:27:16.116Z,15.60
2019-05-18T13:29:46.408Z,15.80
2019-05-18T13:32:16.701Z,16.00
2019-05-18T13:34:47.001Z,16.20
2019-05-18T13:37:17.230Z,16.40
2019-05-18T13:39:47.543Z,16.60
2019-05-18T13:42:17.794Z,16.70
2019-05-18T13:44:47.979Z,16.80
2019-05-18T13:47:18.311Z,16.80
2019-05-18T13:49:48.489Z,16.80
2019-05-18T13:52:18.749Z,16.70
2019-05-18T13:55:03.011Z,16.60
2019-05-18T13:57:20.903Z,16.50
2019-05-18T13:59:51.116Z,16.40
2019-05-18T14:02:21.482Z,16.30
2019-05-18T14:04:51.704Z,16.30
2019-05-18T14:07:22.014Z,16.30
2019-05-18T14:09:52.377Z,16.20
2019-05-18T14:12:22.577Z,16.10
2019-05-18T14:14:52.864Z,16.00
2019-05-18T14:17:23.240Z,15.90
2019-05-18T14:19:53.499Z,15.70
2019-05-18T14:22:23.655Z,15.60
2019-05-18T14:24:53.952Z,15.50
2019-05-18T14:27:25.017Z,15.40
2019-05-18T14:29:55.251Z,15.30
2019-05-18T14:32:25.591Z,15.30
2019-05-18T14:34:55.828Z,15.40
2019-05-18T14:37:26.012Z,15.40
2019-05-18T14:39:56.291Z,15.40
2019-05-18T14:42:26.392Z,15.40
2019-05-18T14:44:56.625Z,15.30
2019-05-18T14:47:27.654Z,15.30
2019-05-18T14:49:57.994Z,15.30
2019-05-18T14:52:28.302Z,15.30
2019-05-18T14:54:58.524Z,15.10
2019-05-18T14:57:28.801Z,15.10
2019-05-18T15:00:02.197Z,15.10
2019-05-18T15:02:30.996Z,15.20
2019-05-18T15:05:01.333Z,15.30
2019-05-18T15:07:31.635Z,15.40
2019-05-18T15:10:01.948Z,15.50
2019-05-18T15:12:32.240Z,15.60
2019-05-18T15:15:02.418Z,15.60
2019-05-18T15:17:32.607Z,15.60
2019-05-18T15:20:02.794Z,15.60
2019-05-18T15:22:33.020Z,15.50
2019-05-18T15:25:03.244Z,15.50
2019-05-18T15:27:33.581Z,15.50
2019-05-18T15:30:04.913Z,15.40
2019-05-18T15:32:35.181Z,15.40
2019-05-18T15:35:05.635Z,15.30
2019-05-18T15:37:35.928Z,15.30
2019-05-18T15:40:06.625Z,15.30
2019-05-18T15:42:36.851Z,15.30
2019-05-18T15:45:07.603Z,15.30
2019-05-18T15:47:37.846Z,15.30
2019-05-18T15:50:08.375Z,15.30
2019-05-18T15:52:38.612Z,15.30
2019-05-18T15:55:09.182Z,15.30
2019-05-18T15:57:39.499Z,15.20
2019-05-18T16:00:10.585Z,15.20
2019-05-18T16:02:40.971Z,15.20
2019-05-18T16:05:11.451Z,15.20
2019-05-18T16:07:41.715Z,15.10
2019-05-18T16:10:12.479Z,15.10
2019-05-18T16:12:42.807Z,15.00
2019-05-18T16:15:14.374Z,15.00
2019-05-18T16:17:44.993Z,14.90
2019-05-18T16:20:15.640Z,14.90
2019-05-18T16:22:45.893Z,14.90
2019-05-18T16:25:16.659Z,14.90
2019-05-18T16:27:46.859Z,14.90
2019-05-18T16:30:18.869Z,14.90
2019-05-18T16:32:49.171Z,14.90
2019-05-18T16:35:19.439Z,14.90
2019-05-18T16:37:49.651Z,14.90
2019-05-18T16:40:20.261Z,14.90
2019-05-18T16:42:50.552Z,14.80
2019-05-18T16:45:20.833Z,14.80
2019-05-18T16:47:51.094Z,14.80
2019-05-18T16:50:21.363Z,14.70
2019-05-18T16:52:51.635Z,14.70
2019-05-18T16:55:21.889Z,14.70
2019-05-18T16:57:52.011Z,14.60
2019-05-18T17:00:22.674Z,14.60
2019-05-18T17:02:52.999Z,14.50
2019-05-18T17:05:23.255Z,14.50
2019-05-18T17:07:53.410Z,14.40
2019-05-18T17:10:23.799Z,14.40
2019-05-18T17:12:54.021Z,14.40
2019-05-18T17:15:24.414Z,14.40
2019-05-18T17:17:54.683Z,14.40
2019-05-18T17:20:24.835Z,14.40
2019-05-18T17:22:55.092Z,14.40
2019-05-18T17:25:25.364Z,14.40
2019-05-18T17:27:55.598Z,14.30
2019-05-18T17:30:25.838Z,14.30
2019-05-18T17:32:57.136Z,14.30
2019-05-18T17:35:27.202Z,14.30
2019-05-18T17:37:57.915Z,14.20
2019-05-18T17:40:28.232Z,14.20
2019-05-18T17:42:58.411Z,14.20
2019-05-18T17:45:28.612Z,14.20
2019-05-18T17:47:58.862Z,14.20
2019-05-18T17:50:29.079Z,14.20
2019-05-18T17:52:59.309Z,14.20
2019-05-18T17:55:29.667Z,14.20
2019-05-18T17:57:59.880Z,14.30
2019-05-18T18:00:30.152Z,14.30
2019-05-18T18:03:00.444Z,14.30
2019-05-18T18:05:30.655Z,14.30
2019-05-18T18:08:00.697Z,14.30
2019-05-18T18:10:31.003Z,14.20
2019-05-18T18:13:01.311Z,14.20
2019-05-18T18:15:31.553Z,14.20
2019-05-18T18:18:02.042Z,14.10
2019-05-18T18:20:32.317Z,14.10
2019-05-18T18:23:02.584Z,14.10
2019-05-18T18:25:32.776Z,14.00
2019-05-18T18:28:02.982Z,14.00
2019-05-18T18:30:33.232Z,14.00
2019-05-18T18:33:03.503Z,14.10
2019-05-18T18:35:34.756Z,14.10
2019-05-18T18:38:05.030Z,14.00
2019-05-18T18:40:35.300Z,14.00
2019-05-18T18:43:05.417Z,14.00
2019-05-18T18:45:35.695Z,14.00
2019-05-18T18:48:06.285Z,13.90
2019-05-18T18:50:36.530Z,13.90
2019-05-18T18:53:06.760Z,13.90
2019-05-18T18:55:37.197Z,13.80
2019-05-18T18:58:07.456Z,13.70
2019-05-18T19:00:38.127Z,13.70
2019-05-18T19:03:08.428Z,13.70
2019-05-18T19:05:38.700Z,13.70
2019-05-18T19:08:08.880Z,13.70
2019-05-18T19:10:39.099Z,13.70
2019-05-18T19:13:09.459Z,13.70
2019-05-18T19:15:39.753Z,13.70
2019-05-18T19:18:10.012Z,13.70
2019-05-18T19:20:40.193Z,13.70
2019-05-18T19:23:10.397Z,13.60
2019-05-18T19:25:40.783Z,13.50
2019-05-18T19:28:11.036Z,13.40
2019-05-18T19:30:41.280Z,13.40
2019-05-18T19:33:11.576Z,13.40
2019-05-18T19:35:41.844Z,13.40
2019-05-18T19:38:13.176Z,13.40
2019-05-18T19:40:43.548Z,13.40
2019-05-18T19:43:13.728Z,13.30
2019-05-18T19:45:43.930Z,13.30
2019-05-18T19:48:14.195Z,13.20
2019-05-18T19:50:44.427Z,13.20
2019-05-18T19:53:14.626Z,13.10
2019-05-18T19:55:44.748Z,13.10
2019-05-18T19:58:14.916Z,13.00
2019-05-18T20:00:45.146Z,13.00
2019-05-18T20:03:15.525Z,13.00
2019-05-18T20:05:45.698Z,13.10
2019-05-18T20:08:15.923Z,13.10
2019-05-18T20:10:46.341Z,13.10
2019-05-18T20:13:16.709Z,13.10
2019-05-18T20:15:47.177Z,13.10
2019-05-18T20:18:17.583Z,13.10
2019-05-18T20:20:47.844Z,13.00
2019-05-18T20:23:18.094Z,12.90
2019-05-18T20:25:48.378Z,12.80
2019-05-18T20:28:23.643Z,12.80
2019-05-18T20:30:50.474Z,12.80
2019-05-18T20:33:20.773Z,12.70
2019-05-18T20:35:50.990Z,12.70
2019-05-18T20:38:21.359Z,12.60
2019-05-18T20:40:52.543Z,12.60
2019-05-18T20:43:22.803Z,12.60
2019-05-18T20:45:53.211Z,12.60
2019-05-18T20:48:23.539Z,12.60
2019-05-18T20:50:53.796Z,12.60
2019-05-18T20:53:23.979Z,12.60
2019-05-18T20:55:54.263Z,12.60
2019-05-18T20:58:38.678Z,12.60
2019-05-18T21:00:56.287Z,12.60
2019-05-18T21:03:26.542Z,12.60
2019-05-18T21:05:56.743Z,12.70
2019-05-18T21:08:26.998Z,12.70
2019-05-18T21:10:57.134Z,12.70
2019-05-18T21:13:27.294Z,12.80
2019-05-18T21:15:57.563Z,12.70
2019-05-18T21:18:27.851Z,12.70
2019-05-18T21:20:58.075Z,12.80
2019-05-18T21:23:28.255Z,12.80
2019-05-18T21:25:58.614Z,12.80
2019-05-18T21:28:28.860Z,12.80
2019-05-18T21:30:59.043Z,12.80
2019-05-18T21:33:29.354Z,12.90
2019-05-18T21:35:59.631Z,12.90
2019-05-18T21:38:29.856Z,12.90
2019-05-18T21:41:00.110Z,12.80
2019-05-18T21:43:31.170Z,12.80
2019-05-18T21:46:01.349Z,12.80
2019-05-18T21:48:31.619Z,12.80
2019-05-18T21:51:01.784Z,12.80
2019-05-18T21:53:32.153Z,12.80
2019-05-18T21:56:02.506Z,12.80
2019-05-18T21:58:32.710Z,12.70
2019-05-18T22:01:03.127Z,12.70
2019-05-18T22:03:33.411Z,12.70
2019-05-18T22:06:03.633Z,12.70
2019-05-18T22:08:33.907Z,12.70
2019-05-18T22:11:04.327Z,12.60
2019-05-18T22:13:34.600Z,12.70
2019-05-18T22:16:04.825Z,12.60
2019-05-18T22:18:35.167Z,12.70
2019-05-18T22:21:05.819Z,12.60
2019-05-18T22:23:35.999Z,12.60
2019-05-18T22:26:06.273Z,12.60
2019-05-18T22:28:36.407Z,12.70
2019-05-18T22:31:06.643Z,12.60
2019-05-18T22:33:36.937Z,12.70
2019-05-18T22:36:07.190Z,12.70
2019-05-18T22:38:37.370Z,12.60
2019-05-18T22:41:07.689Z,12.60
2019-05-18T22:43:37.952Z,12.60
2019-05-18T22:46:09.044Z,12.60
2019-05-18T22:48:41.632Z,12.60
2019-05-18T22:51:11.295Z,12.50
2019-05-18T22:53:41.463Z,12.60
2019-05-18T22:56:11.778Z,12.50
2019-05-18T22:58:42.044Z,12.50
2019-05-18T23:01:12.229Z,12.50
2019-05-18T23:03:42.354Z,12.50
2019-05-18T23:06:12.605Z,12.50
2019-05-18T23:08:42.932Z,12.50
2019-05-18T23:11:13.168Z,12.40
2019-05-18T23:13:43.847Z,12.40
2019-05-18T23:16:14.111Z,12.50
2019-05-18T23:18:55.885Z,12.50
2019-05-18T23:21:16.284Z,12.40
2019-05-18T23:23:46.471Z,12.50
2019-05-18T23:26:16.767Z,12.50
2019-05-18T23:28:47.021Z,12.50
2019-05-18T23:31:17.291Z,12.40
2019-05-18T23:33:47.555Z,12.40
2019-05-18T23:36:17.722Z,12.40
2019-05-18T23:38:47.947Z,12.40
2019-05-18T23:41:18.227Z,12.40
2019-05-18T23:43:48.469Z,12.40
2019-05-18T23:46:18.666Z,12.40
2019-05-18T23:48:49.910Z,12.40
2019-05-18T23:51:20.159Z,12.40
2019-05-18T23:53:53.579Z,12.40
2019-05-18T23:56:22.413Z,12.40
2019-05-18T23:58:52.695Z,12.40
